createdAt,value
2019-04-28T17:53:23.263Z,0.90
2019-04-28T17:55:53.360Z,0.87
2019-04-28T17:58:23.573Z,1.00
2019-04-28T18:01:24.555Z,0.90
2019-04-28T18:04:23.053Z,0.80
2019-04-28T18:06:58.194Z,0.90
2019-04-28T18:09:28.509Z,0.90
2019-04-28T18:11:58.539Z,2.70
2019-04-28T18:14:28.964Z,2.17
2019-04-28T18:17:21.405Z,2.10
2019-04-28T18:19:51.695Z,1.67
2019-04-28T18:22:23.288Z,1.37
2019-04-28T18:24:53.409Z,1.23
2019-04-28T18:27:23.429Z,1.10
2019-04-28T18:29:53.483Z,0.93
2019-04-28T18:32:37.310Z,0.60
2019-04-28T18:35:32.360Z,1.00
2019-04-28T18:38:17.482Z,0.90
2019-04-28T18:41:12.347Z,0.90
2019-04-28T18:44:10.729Z,0.77
2019-04-28T18:46:40.708Z,0.90
2019-04-28T18:49:10.691Z,0.80
2019-04-28T18:51:42.229Z,0.97
2019-04-28T18:54:14.470Z,1.50
2019-04-28T18:56:44.587Z,1.27
2019-04-28T18:59:14.658Z,1.20
2019-04-28T19:02:00.117Z,0.80
2019-04-28T19:04:30.098Z,1.10
2019-04-28T19:07:05.124Z,0.90
2019-04-28T19:09:39.420Z,1.20
2019-04-28T19:12:31.310Z,0.97
2019-04-28T19:15:38.514Z,1.20
2019-04-28T19:18:13.525Z,1.00
2019-04-28T19:20:43.878Z,0.70
2019-04-28T19:23:14.052Z,0.90
2019-04-28T19:25:44.358Z,1.10
2019-04-28T19:28:14.533Z,1.00
2019-04-28T19:30:45.760Z,1.00
2019-04-28T19:33:16.076Z,1.10
2019-04-28T19:35:46.297Z,1.00
2019-04-28T19:38:16.526Z,0.90
2019-04-28T19:40:46.664Z,1.30
2019-04-28T19:43:16.893Z,1.30
2019-04-28T19:45:48.725Z,1.37
2019-04-28T19:48:18.871Z,1.20
2019-04-28T19:50:49.002Z,0.70
2019-04-28T19:53:19.112Z,1.05
2019-04-28T19:55:56.832Z,0.98
2019-04-28T19:58:40.890Z,1.05
2019-04-28T20:01:23.503Z,0.90
2019-04-28T20:03:54.744Z,1.20
2019-04-28T20:06:24.840Z,1.20
2019-04-28T20:08:54.941Z,1.47
2019-04-28T20:11:24.944Z,0.98
2019-04-28T20:13:55.071Z,1.40
2019-04-28T20:16:25.377Z,1.07
2019-04-28T20:18:56.111Z,1.10
2019-04-28T20:21:27.513Z,1.30
2019-04-28T20:23:57.837Z,1.17
2019-04-28T20:26:28.479Z,1.20
2019-04-28T20:28:58.881Z,1.05
2019-04-28T20:31:30.102Z,1.50
2019-04-28T20:34:00.342Z,1.25
2019-04-28T20:36:59.086Z,0.98
2019-04-28T20:39:31.469Z,1.45
2019-04-28T20:42:19.833Z,1.50
2019-04-28T20:44:50.709Z,1.17
2019-04-28T20:47:22.644Z,1.27
2019-04-28T20:49:53.375Z,1.27
2019-04-28T20:52:24.471Z,1.17
2019-04-28T20:54:54.941Z,1.05
2019-04-28T20:57:25.057Z,1.30
2019-04-28T20:59:55.697Z,1.20
2019-04-28T21:02:27.063Z,1.30
2019-04-28T21:04:57.350Z,1.20
2019-04-28T21:07:27.952Z,1.10
2019-04-28T21:09:58.981Z,1.30
2019-04-28T21:12:29.274Z,1.25
2019-04-28T21:15:00.503Z,1.05
2019-04-28T21:17:30.772Z,1.32
2019-04-28T21:20:00.857Z,1.20
2019-04-28T21:22:30.912Z,1.02
2019-04-28T21:25:02.327Z,1.45
2019-04-28T21:27:32.876Z,1.22
2019-04-28T21:30:03.748Z,0.90
2019-04-28T21:32:34.130Z,1.20
2019-04-28T21:35:05.401Z,1.32
2019-04-28T21:37:35.614Z,1.27
2019-04-28T21:40:05.952Z,1.37
2019-04-28T21:43:04.603Z,1.30
2019-04-28T21:46:03.025Z,1.20
2019-04-28T21:48:41.766Z,1.40
2019-04-28T21:51:12.288Z,1.30
2019-04-28T21:53:42.546Z,1.30
2019-04-28T21:56:12.544Z,1.32
2019-04-28T21:58:42.545Z,1.42
2019-04-28T22:01:15.453Z,1.60
2019-04-28T22:03:46.058Z,1.55
2019-04-28T22:06:16.145Z,1.55
2019-04-28T22:08:46.492Z,1.67
2019-04-28T22:11:16.626Z,1.80
2019-04-28T22:13:46.998Z,1.65
2019-04-28T22:16:19.108Z,2.00
2019-04-28T22:18:49.082Z,1.60
2019-04-28T22:21:19.111Z,2.00
2019-04-28T22:24:02.469Z,1.77
2019-04-28T22:26:49.187Z,1.85
2019-04-28T22:29:19.144Z,2.10
2019-04-28T22:31:50.061Z,2.10
2019-04-28T22:34:20.168Z,2.20
2019-04-28T22:36:50.491Z,2.05
2019-04-28T22:39:20.585Z,2.40
2019-04-28T22:41:51.865Z,2.20
2019-04-28T22:44:21.949Z,2.60
2019-04-28T22:46:52.053Z,2.60
2019-04-28T22:49:22.294Z,2.15
2019-04-28T22:51:52.506Z,2.37
2019-04-28T22:54:44.573Z,2.25
2019-04-28T22:57:31.731Z,2.40
2019-04-28T23:00:02.006Z,2.60
2019-04-28T23:02:33.808Z,2.65
2019-04-28T23:05:06.882Z,2.73
2019-04-28T23:07:37.013Z,2.37
2019-04-28T23:10:07.105Z,2.00
2019-04-28T23:12:37.355Z,2.00
2019-04-28T23:15:08.256Z,1.87
2019-04-28T23:17:38.436Z,2.20
2019-04-28T23:20:11.947Z,2.58
2019-04-28T23:22:47.401Z,2.25
2019-04-28T23:25:17.541Z,2.50
2019-04-28T23:27:47.578Z,2.30
2019-04-28T23:30:38.467Z,2.33
2019-04-28T23:33:08.499Z,2.10
2019-04-28T23:35:38.526Z,2.17
2019-04-28T23:38:08.563Z,2.05
2019-04-28T23:40:42.843Z,2.10
2019-04-28T23:43:17.274Z,2.00
2019-04-28T23:45:47.262Z,2.22
2019-04-28T23:48:17.347Z,1.82
2019-04-28T23:50:59.102Z,2.10
2019-04-28T23:53:48.075Z,2.12
2019-04-28T23:56:18.062Z,2.00
2019-04-28T23:58:48.067Z,2.00
